sensor_id;sensor_type;location;lat;lon;timestamp;pressure;altitude;pressure_sealevel;temperature;humidity
71917;BME280;59793;46.506;6.674;2023-05-21T00:02:01;96712.78;;;15.36;71.95
71917;BME280;59793;46.506;6.674;2023-05-21T00:04:29;96701.06;;;15.26;72.30
71917;BME280;59793;46.506;6.674;2023-05-21T00:06:56;96708.22;;;15.22;72.78
71917;BME280;59793;46.506;6.674;2023-05-21T00:09:22;96705.22;;;15.20;73.16
71917;BME280;59793;46.506;6.674;2023-05-21T00:11:48;96692.69;;;15.17;73.14
71917;BME280;59793;46.506;6.674;2023-05-21T00:14:14;96688.53;;;15.23;72.81
71917;BME280;59793;46.506;6.674;2023-05-21T00:16:39;96692.69;;;15.06;73.54
71917;BME280;59793;46.506;6.674;2023-05-21T00:19:05;96705.97;;;14.99;73.70
71917;BME280;59793;46.506;6.674;2023-05-21T00:21:30;96697.59;;;15.01;74.05
71917;BME280;59793;46.506;6.674;2023-05-21T00:23:55;96696.09;;;14.86;75.12
71917;BME280;59793;46.506;6.674;2023-05-21T00:26:21;96693.78;;;14.80;75.46
71917;BME280;59793;46.506;6.674;2023-05-21T00:28:48;96697.22;;;14.81;75.82
71917;BME280;59793;46.506;6.674;2023-05-21T00:31:14;96696.47;;;14.84;75.85
71917;BME280;59793;46.506;6.674;2023-05-21T00:33:42;96692.28;;;14.94;75.41
71917;BME280;59793;46.506;6.674;2023-05-21T00:36:07;96699.50;;;14.97;75.38
71917;BME280;59793;46.506;6.674;2023-05-21T00:38:32;96690.03;;;14.92;75.75
71917;BME280;59793;46.506;6.674;2023-05-21T00:40:59;96686.22;;;14.90;75.55
71917;BME280;59793;46.506;6.674;2023-05-21T00:43:25;96687.75;;;14.91;75.42
71917;BME280;59793;46.506;6.674;2023-05-21T00:45:50;96682.44;;;15.05;74.83
71917;BME280;59793;46.506;6.674;2023-05-21T00:48:17;96674.13;;;14.89;75.37
71917;BME280;59793;46.506;6.674;2023-05-21T00:50:43;96676.38;;;14.94;75.21
71917;BME280;59793;46.506;6.674;2023-05-21T00:53:09;96671.81;;;14.91;75.57
71917;BME280;59793;46.506;6.674;2023-05-21T00:55:37;96677.13;;;14.83;75.45
71917;BME280;59793;46.506;6.674;2023-05-21T00:58:03;96674.84;;;14.75;75.68
71917;BME280;59793;46.506;6.674;2023-05-21T01:00:30;96679.41;;;14.81;75.66
71917;BME280;59793;46.506;6.674;2023-05-21T01:02:56;96684.22;;;14.47;76.30
71917;BME280;59793;46.506;6.674;2023-05-21T01:05:22;96678.63;;;14.56;76.32
71917;BME280;59793;46.506;6.674;2023-05-21T01:07:51;96675.59;;;14.68;75.92
71917;BME280;59793;46.506;6.674;2023-05-21T01:10:16;96664.97;;;14.65;75.84
71917;BME280;59793;46.506;6.674;2023-05-21T01:12:42;96665.72;;;14.54;76.33
71917;BME280;59793;46.506;6.674;2023-05-21T01:15:08;96668.75;;;14.56;76.31
71917;BME280;59793;46.506;6.674;2023-05-21T01:17:35;96677.03;;;14.48;76.41
71917;BME280;59793;46.506;6.674;2023-05-21T01:20:00;96678.16;;;14.47;76.54
71917;BME280;59793;46.506;6.674;2023-05-21T01:22:31;96670.22;;;14.47;76.32
71917;BME280;59793;46.506;6.674;2023-05-21T01:24:59;96675.59;;;14.61;75.84
71917;BME280;59793;46.506;6.674;2023-05-21T01:27:26;96679.75;;;14.76;75.19
71917;BME280;59793;46.506;6.674;2023-05-21T01:29:51;96685.41;;;14.50;76.06
71917;BME280;59793;46.506;6.674;2023-05-21T01:37:29;96691.88;;;14.63;75.00
71917;BME280;59793;46.506;6.674;2023-05-21T01:39:56;96689.22;;;14.60;74.75
71917;BME280;59793;46.506;6.674;2023-05-21T01:42:23;96694.53;;;14.56;74.58
71917;BME280;59793;46.506;6.674;2023-05-21T01:44:50;96696.31;;;14.45;74.92
71917;BME280;59793;46.506;6.674;2023-05-21T01:47:19;96695.19;;;14.39;74.91
71917;BME280;59793;46.506;6.674;2023-05-21T01:49:46;96696.63;;;14.22;75.21
71917;BME280;59793;46.506;6.674;2023-05-21T01:52:11;96691.72;;;14.24;75.20
71917;BME280;59793;46.506;6.674;2023-05-21T01:54:36;96694.66;;;14.01;75.43
71917;BME280;59793;46.506;6.674;2023-05-21T01:57:02;96685.59;;;14.05;75.78
71917;BME280;59793;46.506;6.674;2023-05-21T01:59:28;96684.78;;;13.98;76.20
71917;BME280;59793;46.506;6.674;2023-05-21T02:01:54;96683.63;;;13.95;76.44
71917;BME280;59793;46.506;6.674;2023-05-21T02:04:19;96694.28;;;14.06;75.97
71917;BME280;59793;46.506;6.674;2023-05-21T02:06:45;96691.69;;;14.20;75.59
71917;BME280;59793;46.506;6.674;2023-05-21T02:09:10;96695.84;;;14.10;75.56
71917;BME280;59793;46.506;6.674;2023-05-21T02:11:36;96690.53;;;14.10;75.79
71917;BME280;59793;46.506;6.674;2023-05-21T02:14:01;96688.59;;;14.00;76.02
71917;BME280;59793;46.506;6.674;2023-05-21T02:16:28;96697.31;;;14.01;75.85
71917;BME280;59793;46.506;6.674;2023-05-21T02:18:53;96696.19;;;14.05;75.29
71917;BME280;59793;46.506;6.674;2023-05-21T02:21:21;96697.31;;;14.04;75.30
71917;BME280;59793;46.506;6.674;2023-05-21T02:23:46;96693.84;;;13.93;75.71
71917;BME280;59793;46.506;6.674;2023-05-21T02:26:11;96686.28;;;13.92;75.28
71917;BME280;59793;46.506;6.674;2023-05-21T02:28:37;96693.84;;;13.90;75.41
71917;BME280;59793;46.506;6.674;2023-05-21T02:31:02;96689.72;;;13.96;75.44
71917;BME280;59793;46.506;6.674;2023-05-21T02:33:27;96686.63;;;13.86;75.72
71917;BME280;59793;46.506;6.674;2023-05-21T02:35:55;96679.47;;;13.91;75.99
71917;BME280;59793;46.506;6.674;2023-05-21T02:38:20;96689.66;;;13.92;75.80
71917;BME280;59793;46.506;6.674;2023-05-21T02:40:47;96681.38;;;13.94;75.55
71917;BME280;59793;46.506;6.674;2023-05-21T02:43:12;96677.91;;;13.82;76.18
71917;BME280;59793;46.506;6.674;2023-05-21T02:45:38;96679.84;;;13.89;75.89
71917;BME280;59793;46.506;6.674;2023-05-21T02:48:03;96678.31;;;13.92;75.86
71917;BME280;59793;46.506;6.674;2023-05-21T02:50:28;96670.78;;;13.94;75.61
71917;BME280;59793;46.506;6.674;2023-05-21T02:52:54;96676.47;;;13.96;75.73
71917;BME280;59793;46.506;6.674;2023-05-21T02:55:19;96685.97;;;14.04;75.73
71917;BME280;59793;46.506;6.674;2023-05-21T02:57:46;96692.03;;;14.08;75.53
71917;BME280;59793;46.506;6.674;2023-05-21T03:00:11;96683.72;;;14.13;75.03
71917;BME280;59793;46.506;6.674;2023-05-21T03:02:37;96683.66;;;13.99;75.34
71917;BME280;59793;46.506;6.674;2023-05-21T03:05:02;96683.72;;;14.13;75.11
71917;BME280;59793;46.506;6.674;2023-05-21T03:07:27;96683.31;;;14.04;75.37
71917;BME280;59793;46.506;6.674;2023-05-21T03:09:53;96675.38;;;14.04;75.45
71917;BME280;59793;46.506;6.674;2023-05-21T03:12:18;96679.50;;;14.01;75.34
71917;BME280;59793;46.506;6.674;2023-05-21T03:14:43;96679.91;;;14.00;75.57
71917;BME280;59793;46.506;6.674;2023-05-21T03:17:10;96675.28;;;13.82;76.28
71917;BME280;59793;46.506;6.674;2023-05-21T03:19:38;96682.84;;;13.84;76.20
71917;BME280;59793;46.506;6.674;2023-05-21T03:22:03;96676.09;;;13.97;75.56
71917;BME280;59793;46.506;6.674;2023-05-21T03:24:28;96673.06;;;13.99;75.15
71917;BME280;59793;46.506;6.674;2023-05-21T03:26:54;96676.09;;;14.01;75.49
71917;BME280;59793;46.506;6.674;2023-05-21T03:29:19;96680.28;;;14.02;75.21
71917;BME280;59793;46.506;6.674;2023-05-21T03:31:45;96679.91;;;14.00;75.44
71917;BME280;59793;46.506;6.674;2023-05-21T03:34:11;96684.38;;;13.92;76.02
71917;BME280;59793;46.506;6.674;2023-05-21T03:36:36;96684.78;;;13.94;76.07
71917;BME280;59793;46.506;6.674;2023-05-21T03:39:01;96677.56;;;13.87;76.15
71917;BME280;59793;46.506;6.674;2023-05-21T03:41:28;96684.03;;;13.97;75.74
71917;BME280;59793;46.506;6.674;2023-05-21T03:43:53;96683.63;;;13.92;76.25
71917;BME280;59793;46.506;6.674;2023-05-21T03:46:19;96686.66;;;13.94;76.35
71917;BME280;59793;46.506;6.674;2023-05-21T03:48:44;96687.47;;;14.01;76.24
71917;BME280;59793;46.506;6.674;2023-05-21T03:51:09;96691.19;;;13.90;76.67
71917;BME280;59793;46.506;6.674;2023-05-21T03:53:35;96687.09;;;13.99;76.45
71917;BME280;59793;46.506;6.674;2023-05-21T03:56:00;96692.00;;;14.01;76.61
71917;BME280;59793;46.506;6.674;2023-05-21T03:58:25;96694.66;;;14.01;76.89
71917;BME280;59793;46.506;6.674;2023-05-21T04:00:52;96698.63;;;13.70;77.66
71917;BME280;59793;46.506;6.674;2023-05-21T04:03:17;96693.22;;;13.52;78.10
71917;BME280;59793;46.506;6.674;2023-05-21T04:05:42;96700.63;;;13.32;78.51
71917;BME280;59793;46.506;6.674;2023-05-21T04:08:08;96702.50;;;13.28;78.46
71917;BME280;59793;46.506;6.674;2023-05-21T04:10:33;96703.31;;;13.35;78.40
71917;BME280;59793;46.506;6.674;2023-05-21T04:12:59;96708.25;;;13.37;78.06
71917;BME280;59793;46.506;6.674;2023-05-21T04:15:24;96713.63;;;13.48;77.97
71917;BME280;59793;46.506;6.674;2023-05-21T04:17:49;96712.16;;;13.54;77.20
71917;BME280;59793;46.506;6.674;2023-05-21T04:20:16;96720.25;;;13.27;77.61
71917;BME280;59793;46.506;6.674;2023-05-21T04:22:42;96718.63;;;13.15;78.25
71917;BME280;59793;46.506;6.674;2023-05-21T04:25:07;96732.69;;;13.23;78.25
71917;BME280;59793;46.506;6.674;2023-05-21T04:27:32;96728.19;;;13.27;78.11
71917;BME280;59793;46.506;6.674;2023-05-21T04:29:58;96732.38;;;13.32;77.71
71917;BME280;59793;46.506;6.674;2023-05-21T04:32:23;96729.38;;;13.33;77.85
71917;BME280;59793;46.506;6.674;2023-05-21T04:34:49;96724.16;;;13.41;78.03
71917;BME280;59793;46.506;6.674;2023-05-21T04:37:15;96735.56;;;13.52;77.97
71917;BME280;59793;46.506;6.674;2023-05-21T04:39:43;96734.91;;;13.62;78.06
71917;BME280;59793;46.506;6.674;2023-05-21T04:42:09;96743.63;;;13.66;78.00
71917;BME280;59793;46.506;6.674;2023-05-21T04:44:37;96744.06;;;13.75;77.62
71917;BME280;59793;46.506;6.674;2023-05-21T04:47:05;96749.00;;;13.80;78.04
71917;BME280;59793;46.506;6.674;2023-05-21T04:49:31;96753.22;;;13.88;77.73
71917;BME280;59793;46.506;6.674;2023-05-21T04:51:58;96749.88;;;13.99;77.38
71917;BME280;59793;46.506;6.674;2023-05-21T04:54:24;96755.94;;;13.99;77.55
71917;BME280;59793;46.506;6.674;2023-05-21T04:56:49;96760.16;;;14.07;77.52
71917;BME280;59793;46.506;6.674;2023-05-21T04:59:14;96751.06;;;14.05;77.42
71917;BME280;59793;46.506;6.674;2023-05-21T05:01:40;96753.41;;;14.17;77.06
71917;BME280;59793;46.506;6.674;2023-05-21T05:04:07;96753.84;;;14.33;76.94
71917;BME280;59793;46.506;6.674;2023-05-21T05:06:33;96757.66;;;14.36;76.88
71917;BME280;59793;46.506;6.674;2023-05-21T05:08:58;96754.28;;;14.43;76.36
71917;BME280;59793;46.506;6.674;2023-05-21T05:11:24;96764.50;;;14.44;76.51
71917;BME280;59793;46.506;6.674;2023-05-21T05:13:50;96758.16;;;14.60;75.56
71917;BME280;59793;46.506;6.674;2023-05-21T05:16:15;96756.63;;;14.58;75.83
71917;BME280;59793;46.506;6.674;2023-05-21T05:18:42;96757.78;;;14.61;75.82
71917;BME280;59793;46.506;6.674;2023-05-21T05:21:07;96761.22;;;14.72;75.76
71917;BME280;59793;46.506;6.674;2023-05-21T05:23:33;96765.78;;;14.75;75.55
71917;BME280;59793;46.506;6.674;2023-05-21T05:25:58;96763.88;;;14.76;75.38
71917;BME280;59793;46.506;6.674;2023-05-21T05:28:24;96759.00;;;14.89;74.79
71917;BME280;59793;46.506;6.674;2023-05-21T05:30:49;96766.56;;;14.94;74.86
71917;BME280;59793;46.506;6.674;2023-05-21T05:33:14;96761.25;;;14.94;75.58
71917;BME280;59793;46.506;6.674;2023-05-21T05:35:39;96763.19;;;15.00;75.50
71917;BME280;59793;46.506;6.674;2023-05-21T05:38:05;96761.28;;;15.01;75.56
71917;BME280;59793;46.506;6.674;2023-05-21T05:40:32;96760.53;;;15.04;75.21
71917;BME280;59793;46.506;6.674;2023-05-21T05:42:58;96760.94;;;15.13;74.98
71917;BME280;59793;46.506;6.674;2023-05-21T05:45:23;96761.31;;;15.22;74.93
71917;BME280;59793;46.506;6.674;2023-05-21T05:47:50;96765.50;;;15.27;73.51
71917;BME280;59793;46.506;6.674;2023-05-21T05:50:15;96765.50;;;15.30;73.20
71917;BME280;59793;46.506;6.674;2023-05-21T05:52:41;96764.75;;;15.26;72.98
71917;BME280;59793;46.506;6.674;2023-05-21T05:55:06;96759.06;;;15.24;73.51
71917;BME280;59793;46.506;6.674;2023-05-21T05:57:33;96760.56;;;15.29;73.35
71917;BME280;59793;46.506;6.674;2023-05-21T05:59:59;96764.38;;;15.35;73.55
71917;BME280;59793;46.506;6.674;2023-05-21T06:02:25;96762.09;;;15.37;73.63
71917;BME280;59793;46.506;6.674;2023-05-21T06:04:50;96759.81;;;15.43;73.70
71917;BME280;59793;46.506;6.674;2023-05-21T06:07:15;96764.75;;;15.55;73.35
71917;BME280;59793;46.506;6.674;2023-05-21T06:09:41;96757.56;;;15.59;72.74
71917;BME280;59793;46.506;6.674;2023-05-21T06:12:06;96765.53;;;15.70;71.85
71917;BME280;59793;46.506;6.674;2023-05-21T06:14:31;96756.81;;;15.76;72.14
71917;BME280;59793;46.506;6.674;2023-05-21T06:16:57;96764.41;;;15.67;72.50
71917;BME280;59793;46.506;6.674;2023-05-21T06:19:22;96765.88;;;15.83;71.88
71917;BME280;59793;46.506;6.674;2023-05-21T06:21:47;96762.47;;;15.89;70.72
71917;BME280;59793;46.506;6.674;2023-05-21T06:24:13;96764.03;;;15.80;71.28
71917;BME280;59793;46.506;6.674;2023-05-21T06:26:38;96767.44;;;15.80;71.66
71917;BME280;59793;46.506;6.674;2023-05-21T06:29:03;96765.13;;;15.89;71.52
71917;BME280;59793;46.506;6.674;2023-05-21T06:31:28;96767.44;;;15.69;73.08
71917;BME280;59793;46.506;6.674;2023-05-21T06:33:57;96767.78;;;15.32;74.91
71917;BME280;59793;46.506;6.674;2023-05-21T06:36:22;96766.28;;;15.56;74.02
71917;BME280;59793;46.506;6.674;2023-05-21T06:38:49;96772.00;;;15.80;73.67
71917;BME280;59793;46.506;6.674;2023-05-21T06:41:14;96772.75;;;15.76;73.03
71917;BME280;59793;46.506;6.674;2023-05-21T06:43:40;96767.03;;;15.64;73.50
71917;BME280;59793;46.506;6.674;2023-05-21T06:46:05;96771.19;;;15.50;74.00
71917;BME280;59793;46.506;6.674;2023-05-21T06:48:30;96772.72;;;15.51;74.37
71917;BME280;59793;46.506;6.674;2023-05-21T06:50:56;96762.88;;;15.56;74.17
71917;BME280;59793;46.506;6.674;2023-05-21T06:53:21;96778.03;;;15.94;72.44
71917;BME280;59793;46.506;6.674;2023-05-21T06:55:46;96769.66;;;16.07;71.06
71917;BME280;59793;46.506;6.674;2023-05-21T06:58:13;96766.63;;;16.05;70.85
71917;BME280;59793;46.506;6.674;2023-05-21T07:00:38;96770.75;;;16.31;70.41
71917;BME280;59793;46.506;6.674;2023-05-21T07:03:04;96766.88;;;16.46;70.33
71917;BME280;59793;46.506;6.674;2023-05-21T07:05:30;96764.13;;;16.67;68.64
71917;BME280;59793;46.506;6.674;2023-05-21T07:07:55;96763.31;;;16.85;68.55
71917;BME280;59793;46.506;6.674;2023-05-21T07:10:20;96760.34;;;16.76;67.48
71917;BME280;59793;46.506;6.674;2023-05-21T07:12:46;96760.31;;;16.79;67.88
71917;BME280;59793;46.506;6.674;2023-05-21T07:15:12;96761.13;;;16.65;68.13
71917;BME280;59793;46.506;6.674;2023-05-21T07:17:37;96757.94;;;16.95;67.44
71917;BME280;59793;46.506;6.674;2023-05-21T07:20:03;96757.25;;;16.81;67.06
71917;BME280;59793;46.506;6.674;2023-05-21T07:22:31;96761.09;;;16.76;67.96
71917;BME280;59793;46.506;6.674;2023-05-21T07:24:57;96762.59;;;16.70;67.71
71917;BME280;59793;46.506;6.674;2023-05-21T07:27:22;96762.72;;;16.45;68.73
71917;BME280;59793;46.506;6.674;2023-05-21T07:29:47;96769.97;;;16.34;68.97
71917;BME280;59793;46.506;6.674;2023-05-21T07:32:13;96764.28;;;16.28;69.54
71917;BME280;59793;46.506;6.674;2023-05-21T07:34:38;96754.00;;;16.41;69.60
71917;BME280;59793;46.506;6.674;2023-05-21T07:37:03;96765.03;;;16.29;70.08
71917;BME280;59793;46.506;6.674;2023-05-21T07:39:28;96762.75;;;16.34;69.91
71917;BME280;59793;46.506;6.674;2023-05-21T07:41:54;96758.69;;;15.94;71.04
71917;BME280;59793;46.506;6.674;2023-05-21T07:44:19;96765.13;;;15.89;71.20
71917;BME280;59793;46.506;6.674;2023-05-21T07:46:44;96757.56;;;15.84;71.86
71917;BME280;59793;46.506;6.674;2023-05-21T07:49:11;96756.41;;;15.89;71.49
71917;BME280;59793;46.506;6.674;2023-05-21T07:51:40;96754.06;;;16.16;70.93
71917;BME280;59793;46.506;6.674;2023-05-21T07:54:06;96755.84;;;16.51;69.70
71917;BME280;59793;46.506;6.674;2023-05-21T07:56:31;96749.63;;;16.90;68.44
71917;BME280;59793;46.506;6.674;2023-05-21T07:58:56;96759.22;;;16.66;69.19
71917;BME280;59793;46.506;6.674;2023-05-21T08:01:21;96758.91;;;16.46;69.83
71917;BME280;59793;46.506;6.674;2023-05-21T08:03:47;96764.94;;;16.64;69.08
71917;BME280;59793;46.506;6.674;2023-05-21T08:06:13;96759.91;;;16.81;68.97
71917;BME280;59793;46.506;6.674;2023-05-21T08:08:38;96755.53;;;17.15;67.67
71917;BME280;59793;46.506;6.674;2023-05-21T08:11:04;96761.09;;;16.69;69.36
71917;BME280;59793;46.506;6.674;2023-05-21T08:13:30;96763.16;;;17.10;67.27
71917;BME280;59793;46.506;6.674;2023-05-21T08:15:55;96758.50;;;17.28;66.63
71917;BME280;59793;46.506;6.674;2023-05-21T08:18:22;96760.41;;;17.73;66.81
71917;BME280;59793;46.506;6.674;2023-05-21T08:20:48;96767.31;;;17.66;66.07
71917;BME280;59793;46.506;6.674;2023-05-21T08:23:14;96761.41;;;17.44;66.56
71917;BME280;59793;46.506;6.674;2023-05-21T08:25:40;96772.19;;;17.27;66.36
71917;BME280;59793;46.506;6.674;2023-05-21T08:28:05;96762.22;;;17.38;65.98
71917;BME280;59793;46.506;6.674;2023-05-21T08:30:32;96766.72;;;17.48;66.79
71917;BME280;59793;46.506;6.674;2023-05-21T08:32:59;96774.06;;;17.85;65.53
71917;BME280;59793;46.506;6.674;2023-05-21T08:35:25;96762.69;;;17.78;64.49
71917;BME280;59793;46.506;6.674;2023-05-21T08:37:51;96765.72;;;17.80;64.75
71917;BME280;59793;46.506;6.674;2023-05-21T08:40:17;96766.19;;;17.67;64.24
71917;BME280;59793;46.506;6.674;2023-05-21T08:42:47;96761.25;;;17.62;65.06
71917;BME280;59793;46.506;6.674;2023-05-21T08:45:14;96756.53;;;17.36;65.07
71917;BME280;59793;46.506;6.674;2023-05-21T08:47:42;96757.38;;;17.74;63.87
71917;BME280;59793;46.506;6.674;2023-05-21T08:50:09;96764.31;;;17.64;63.60
71917;BME280;59793;46.506;6.674;2023-05-21T08:52:35;96761.34;;;17.03;64.47
71917;BME280;59793;46.506;6.674;2023-05-21T08:55:04;96761.53;;;17.27;64.04
71917;BME280;59793;46.506;6.674;2023-05-21T08:57:30;96761.31;;;17.55;64.45
71917;BME280;59793;46.506;6.674;2023-05-21T08:59:56;96764.41;;;17.54;64.00
71917;BME280;59793;46.506;6.674;2023-05-21T09:02:21;96757.25;;;17.40;64.23
71917;BME280;59793;46.506;6.674;2023-05-21T09:04:49;96757.13;;;17.02;64.84
71917;BME280;59793;46.506;6.674;2023-05-21T09:07:15;96764.13;;;16.67;67.06
71917;BME280;59793;46.506;6.674;2023-05-21T09:09:48;96764.78;;;17.00;66.27
71917;BME280;59793;46.506;6.674;2023-05-21T09:12:16;96768.81;;;17.19;66.82
71917;BME280;59793;46.506;6.674;2023-05-21T09:14:41;96767.66;;;17.76;65.09
71917;BME280;59793;46.506;6.674;2023-05-21T09:17:07;96765.34;;;17.26;64.85
71917;BME280;59793;46.506;6.674;2023-05-21T09:19:33;96769.81;;;17.39;64.62
71917;BME280;59793;46.506;6.674;2023-05-21T09:22:02;96768.16;;;17.60;64.04
71917;BME280;59793;46.506;6.674;2023-05-21T09:24:32;96761.63;;;17.64;64.42
71917;BME280;59793;46.506;6.674;2023-05-21T09:26:58;96764.13;;;17.86;63.11
71917;BME280;59793;46.506;6.674;2023-05-21T09:29:23;96771.78;;;17.32;64.23
71917;BME280;59793;46.506;6.674;2023-05-21T09:31:50;96768.50;;;17.10;64.26
71917;BME280;59793;46.506;6.674;2023-05-21T09:34:18;96765.84;;;17.06;65.09
71917;BME280;59793;46.506;6.674;2023-05-21T09:36:45;96763.03;;;17.31;64.72
71917;BME280;59793;46.506;6.674;2023-05-21T09:39:15;96765.50;;;18.01;63.34
71917;BME280;59793;46.506;6.674;2023-05-21T09:41:51;96764.44;;;17.95;62.04
71917;BME280;59793;46.506;6.674;2023-05-21T09:44:16;96766.50;;;17.73;63.53
71917;BME280;59793;46.506;6.674;2023-05-21T09:46:41;96774.06;;;17.85;63.19
71917;BME280;59793;46.506;6.674;2023-05-21T09:49:12;96772.19;;;17.75;63.11
71917;BME280;59793;46.506;6.674;2023-05-21T09:51:46;96771.88;;;17.66;63.32
71917;BME280;59793;46.506;6.674;2023-05-21T09:54:11;96775.03;;;17.57;64.10
71917;BME280;59793;46.506;6.674;2023-05-21T09:56:37;96777.56;;;17.72;63.67
71917;BME280;59793;46.506;6.674;2023-05-21T09:59:03;96778.72;;;17.71;63.50
71917;BME280;59793;46.506;6.674;2023-05-21T10:01:31;96777.22;;;17.66;63.31
71917;BME280;59793;46.506;6.674;2023-05-21T10:04:01;96775.28;;;18.15;62.84
71917;BME280;59793;46.506;6.674;2023-05-21T10:06:28;96778.72;;;18.50;62.25
71917;BME280;59793;46.506;6.674;2023-05-21T10:08:55;96776.94;;;19.01;59.79
71917;BME280;59793;46.506;6.674;2023-05-21T10:11:26;96786.81;;;18.77;60.00
71917;BME280;59793;46.506;6.674;2023-05-21T10:13:59;96784.59;;;18.68;60.74
71917;BME280;59793;46.506;6.674;2023-05-21T10:16:25;96784.16;;;18.39;60.72
71917;BME280;59793;46.506;6.674;2023-05-21T10:18:51;96782.56;;;18.79;60.10
71917;BME280;59793;46.506;6.674;2023-05-21T10:21:18;96775.06;;;19.01;58.79
71917;BME280;59793;46.506;6.674;2023-05-21T10:23:45;96771.13;;;19.09;59.82
71917;BME280;59793;46.506;6.674;2023-05-21T10:26:10;96769.28;;;18.76;60.01
71917;BME280;59793;46.506;6.674;2023-05-21T10:28:38;96765.97;;;18.95;59.64
71917;BME280;59793;46.506;6.674;2023-05-21T10:31:04;96759.06;;;19.25;57.71
71917;BME280;59793;46.506;6.674;2023-05-21T10:33:35;96757.44;;;19.04;58.59
71917;BME280;59793;46.506;6.674;2023-05-21T10:36:01;96763.75;;;19.44;57.43
71917;BME280;59793;46.506;6.674;2023-05-21T10:38:26;96761.03;;;19.21;57.86
71917;BME280;59793;46.506;6.674;2023-05-21T10:40:51;96760.97;;;19.24;58.64
71917;BME280;59793;46.506;6.674;2023-05-21T10:53:23;96742.78;;;19.66;56.78
71917;BME280;59793;46.506;6.674;2023-05-21T11:01:10;96749.03;;;19.56;55.55
71917;BME280;59793;46.506;6.674;2023-05-21T11:03:36;96749.59;;;19.71;57.33
71917;BME280;59793;46.506;6.674;2023-05-21T11:06:02;96749.78;;;20.03;56.41
71917;BME280;59793;46.506;6.674;2023-05-21T11:08:29;96757.19;;;20.16;56.08
71917;BME280;59793;46.506;6.674;2023-05-21T11:11:00;96751.72;;;20.23;55.68
71917;BME280;59793;46.506;6.674;2023-05-21T11:13:26;96750.94;;;20.42;54.59
71917;BME280;59793;46.506;6.674;2023-05-21T11:23:55;96749.41;;;20.25;55.13
71917;BME280;59793;46.506;6.674;2023-05-21T11:26:22;96752.94;;;20.38;53.84
71917;BME280;59793;46.506;6.674;2023-05-21T11:31:23;96742.63;;;20.60;52.46
71917;BME280;59793;46.506;6.674;2023-05-21T11:36:44;96747.53;;;20.22;53.61
71917;BME280;59793;46.506;6.674;2023-05-21T11:39:18;96740.34;;;20.59;52.60
71917;BME280;59793;46.506;6.674;2023-05-21T11:42:09;96746.75;;;20.81;52.85
71917;BME280;59793;46.506;6.674;2023-05-21T11:44:42;96744.72;;;20.69;53.87
71917;BME280;59793;46.506;6.674;2023-05-21T11:47:09;96744.50;;;20.20;55.48
71917;BME280;59793;46.506;6.674;2023-05-21T11:49:35;96742.84;;;19.63;56.64
71917;BME280;59793;46.506;6.674;2023-05-21T11:52:05;96749.59;;;19.71;56.43
71917;BME280;59793;46.506;6.674;2023-05-21T11:54:32;96744.31;;;20.11;55.26
71917;BME280;59793;46.506;6.674;2023-05-21T11:57:18;96735.66;;;20.23;54.42
71917;BME280;59793;46.506;6.674;2023-05-21T11:59:45;96744.56;;;20.76;54.00
71917;BME280;59793;46.506;6.674;2023-05-21T12:02:14;96733.75;;;20.99;51.36
71917;BME280;59793;46.506;6.674;2023-05-21T12:05:03;96738.34;;;20.63;51.60
71917;BME280;59793;46.506;6.674;2023-05-21T12:07:56;96745.50;;;20.86;52.45
71917;BME280;59793;46.506;6.674;2023-05-21T12:10:42;96734.56;;;20.40;52.73
71917;BME280;59793;46.506;6.674;2023-05-21T12:13:08;96732.50;;;20.28;53.54
71917;BME280;59793;46.506;6.674;2023-05-21T12:15:33;96735.38;;;20.37;53.81
71917;BME280;59793;46.506;6.674;2023-05-21T12:18:02;96731.19;;;20.16;52.62
71917;BME280;59793;46.506;6.674;2023-05-21T12:20:28;96731.47;;;20.42;52.32
71917;BME280;59793;46.506;6.674;2023-05-21T12:22:55;96731.69;;;20.31;52.52
71917;BME280;59793;46.506;6.674;2023-05-21T12:25:27;96728.75;;;20.25;53.07
71917;BME280;59793;46.506;6.674;2023-05-21T12:27:56;96727.00;;;20.35;52.96
71917;BME280;59793;46.506;6.674;2023-05-21T12:30:23;96721.53;;;20.22;52.54
71917;BME280;59793;46.506;6.674;2023-05-21T12:33:06;96725.56;;;20.30;51.55
71917;BME280;59793;46.506;6.674;2023-05-21T12:35:31;96724.00;;;20.33;52.06
71917;BME280;59793;46.506;6.674;2023-05-21T12:37:59;96717.56;;;20.50;51.92
71917;BME280;59793;46.506;6.674;2023-05-21T12:40:33;96726.63;;;20.57;50.99
71917;BME280;59793;46.506;6.674;2023-05-21T12:43:06;96712.59;;;20.49;51.23
71917;BME280;59793;46.506;6.674;2023-05-21T12:45:31;96721.31;;;20.33;52.27
71917;BME280;59793;46.506;6.674;2023-05-21T12:48:00;96711.72;;;20.16;52.95
71917;BME280;59793;46.506;6.674;2023-05-21T12:50:25;96713.72;;;20.51;52.06
71917;BME280;59793;46.506;6.674;2023-05-21T12:52:53;96719.19;;;20.44;52.87
71917;BME280;59793;46.506;6.674;2023-05-21T12:55:19;96723.59;;;20.15;52.45
71917;BME280;59793;46.506;6.674;2023-05-21T12:57:46;96647.94;;;19.31;53.63
71917;BME280;59793;46.506;6.674;2023-05-21T13:00:12;96717.53;;;19.91;53.81
71917;BME280;59793;46.506;6.674;2023-05-21T13:02:40;96718.59;;;19.97;53.89
71917;BME280;59793;46.506;6.674;2023-05-21T13:05:07;96726.00;;;20.09;53.96
71917;BME280;59793;46.506;6.674;2023-05-21T13:07:33;96730.03;;;19.97;53.44
71917;BME280;59793;46.506;6.674;2023-05-21T13:09:59;96723.09;;;19.80;53.54
71917;BME280;59793;46.506;6.674;2023-05-21T13:12:25;96723.28;;;19.89;53.63
71917;BME280;59793;46.506;6.674;2023-05-21T13:14:53;96721.66;;;20.75;51.99
71917;BME280;59793;46.506;6.674;2023-05-21T13:17:19;96723.63;;;21.40;50.05
71917;BME280;59793;46.506;6.674;2023-05-21T13:22:32;96726.06;;;21.51;52.48
71917;BME280;59793;46.506;6.674;2023-05-21T13:24:59;96721.13;;;21.94;51.28
71917;BME280;59793;46.506;6.674;2023-05-21T13:27:24;96717.28;;;22.08;49.96
71917;BME280;59793;46.506;6.674;2023-05-21T13:29:49;96720.16;;;21.72;52.00
71917;BME280;59793;46.506;6.674;2023-05-21T13:32:21;96716.78;;;21.84;52.43
71917;BME280;59793;46.506;6.674;2023-05-21T13:34:46;96717.81;;;21.74;53.07